Blue Lake, Louisiana
Current Conditions -  °F | °C
As of 9:53 AM on Wednesday 22 Oct 2014 (Local Time) from KAEX Reporting Station
Clear Clear  
Wind Chill: 69°   Ceiling: Unl
Heat Index: 69°   Visibility: 10mi
Dew Point: 58°   Wind: 5mph
Humidity: 68%   Direction: 50°NE
Pressure: 30.12"   Gusts: NA
Location:  31.0356°N, 92.5053°W
Report Text: KAEX 221453Z 05004KT 10SM CLR 21/14 A3012 RMK AO2 SLP204 T02060144 51015
Loading
Personal Weather Stations






























Interactive Weather Map
Tropical Storm Tracking
New forecast layout! Learn more

10-Day Weather Forecast

Advertisements
Track Severe Weather on mobile